createdAt,value
2023-02-26T00:03:33.559Z,1.30
2023-02-26T00:08:36.530Z,1.25
2023-02-26T00:13:46.094Z,1.45
2023-02-26T00:18:48.286Z,1.50
2023-02-26T00:23:50.573Z,1.50
2023-02-26T00:28:56.239Z,1.67
2023-02-26T00:33:58.880Z,1.30
2023-02-26T00:39:13.369Z,1.50
2023-02-26T00:44:15.545Z,1.48
2023-02-26T00:49:54.586Z,1.20
2023-02-26T00:54:56.494Z,1.35
2023-02-26T00:59:58.380Z,1.38
2023-02-26T01:05:01.322Z,1.40
2023-02-26T01:10:04.146Z,1.33
2023-02-26T01:15:07.719Z,1.42
2023-02-26T01:20:31.353Z,0.90
2023-02-26T01:25:43.766Z,0.85
2023-02-26T01:30:47.018Z,1.30
2023-02-26T01:35:54.870Z,1.40
2023-02-26T01:41:12.982Z,1.50
2023-02-26T01:46:49.235Z,1.52
2023-02-26T01:51:55.920Z,1.90
2023-02-26T01:57:08.707Z,1.73
2023-02-26T02:02:16.444Z,1.65
2023-02-26T02:07:19.123Z,2.00
2023-02-26T02:12:41.336Z,1.60
2023-02-26T02:17:51.956Z,2.08
2023-02-26T02:23:02.629Z,1.77
2023-02-26T02:28:36.618Z,1.67
2023-02-26T02:33:51.610Z,2.10
2023-02-26T02:38:59.791Z,2.20
2023-02-26T02:44:06.819Z,1.73
2023-02-26T02:49:38.879Z,2.22
2023-02-26T02:54:49.277Z,2.05
2023-02-26T03:00:13.744Z,1.50
2023-02-26T03:05:17.754Z,1.52
2023-02-26T03:10:20.326Z,1.98
2023-02-26T03:15:35.502Z,1.30
2023-02-26T03:20:49.928Z,1.40
2023-02-26T03:26:19.203Z,1.73
2023-02-26T03:31:54.073Z,2.40
2023-02-26T03:37:13.557Z,2.40
2023-02-26T03:42:43.354Z,1.95
2023-02-26T03:47:54.132Z,2.10
2023-02-26T03:53:01.157Z,2.38
2023-02-26T03:58:14.417Z,2.13
2023-02-26T04:03:46.519Z,2.63
2023-02-26T04:08:48.880Z,2.22
2023-02-26T04:13:50.862Z,2.40
2023-02-26T04:18:53.975Z,2.50
2023-02-26T04:23:55.959Z,1.95
2023-02-26T04:28:57.828Z,2.13
2023-02-26T04:34:00.672Z,1.98
2023-02-26T04:39:03.178Z,2.08
2023-02-26T04:44:06.939Z,2.28
2023-02-26T04:49:11.046Z,2.28
2023-02-26T04:54:19.226Z,1.90
2023-02-26T04:59:21.202Z,2.13
2023-02-26T05:04:23.228Z,2.30
2023-02-26T05:09:32.953Z,2.30
2023-02-26T05:14:35.407Z,2.38
2023-02-26T05:19:37.263Z,1.70
2023-02-26T05:24:40.303Z,1.92
2023-02-26T05:29:45.180Z,1.30
2023-02-26T05:34:49.176Z,1.93
2023-02-26T05:39:51.063Z,1.98
2023-02-26T05:44:52.952Z,1.85
2023-02-26T05:49:54.709Z,2.05
2023-02-26T05:54:56.453Z,2.00
2023-02-26T05:59:58.229Z,1.83
2023-02-26T06:05:00.116Z,1.95
2023-02-26T06:10:01.894Z,2.75
2023-02-26T06:15:05.261Z,2.60
2023-02-26T06:20:07.808Z,2.10
2023-02-26T06:25:09.990Z,2.10
2023-02-26T06:30:12.294Z,2.85
2023-02-26T06:35:14.885Z,2.40
2023-02-26T06:40:16.845Z,2.63
2023-02-26T06:45:18.747Z,2.50
2023-02-26T06:50:20.557Z,2.40
2023-02-26T06:55:26.955Z,2.95
2023-02-26T07:00:28.914Z,2.53
2023-02-26T07:05:30.959Z,2.47
2023-02-26T07:10:33.926Z,2.30
2023-02-26T07:15:35.777Z,2.55
2023-02-26T07:20:37.865Z,2.83
2023-02-26T07:25:39.693Z,1.95
2023-02-26T07:30:43.015Z,2.08
2023-02-26T07:35:45.098Z,2.40
2023-02-26T07:40:48.001Z,2.33
2023-02-26T07:45:52.111Z,2.28
2023-02-26T07:50:55.036Z,3.78
2023-02-26T07:55:57.076Z,4.68
2023-02-26T08:00:59.008Z,3.30
2023-02-26T08:06:03.355Z,3.22
2023-02-26T08:11:05.497Z,3.35
2023-02-26T08:16:07.447Z,3.88
2023-02-26T08:21:09.414Z,2.47
2023-02-26T08:26:13.703Z,3.25
2023-02-26T08:31:16.419Z,2.63
2023-02-26T08:36:18.309Z,4.72
2023-02-26T08:41:20.194Z,2.10
2023-02-26T08:46:22.293Z,2.50
2023-02-26T08:51:24.580Z,3.75
2023-02-26T08:56:27.285Z,3.17
2023-02-26T09:01:29.941Z,4.00
2023-02-26T09:06:32.218Z,4.90
2023-02-26T09:11:34.921Z,4.72
2023-02-26T09:16:37.190Z,5.15
2023-02-26T09:21:39.509Z,4.40
2023-02-26T09:26:41.328Z,4.88
2023-02-26T09:31:43.344Z,6.68
2023-02-26T09:36:46.906Z,4.00
2023-02-26T09:41:54.703Z,2.38
2023-02-26T09:52:24.565Z,2.13
2023-02-26T09:57:43.299Z,2.35
2023-02-26T10:03:06.350Z,2.30
2023-02-26T10:08:19.996Z,1.42
2023-02-26T10:13:56.589Z,1.65
2023-02-26T10:19:05.725Z,2.92
2023-02-26T10:24:25.856Z,1.85
2023-02-26T10:29:33.339Z,1.95
2023-02-26T10:34:45.071Z,1.52
2023-02-26T10:40:16.186Z,1.80
2023-02-26T10:45:51.135Z,1.48
2023-02-26T10:50:58.440Z,2.17
2023-02-26T10:56:04.740Z,1.05
2023-02-26T11:01:16.262Z,1.33
2023-02-26T11:06:24.412Z,1.33
2023-02-26T11:11:55.639Z,1.15
2023-02-26T11:17:01.339Z,1.88
2023-02-26T11:22:05.464Z,1.70
2023-02-26T11:27:14.322Z,1.30
2023-02-26T11:32:20.253Z,1.65
2023-02-26T11:37:39.968Z,1.23
2023-02-26T11:43:05.221Z,1.30
2023-02-26T11:48:11.933Z,0.65
2023-02-26T11:53:32.091Z,0.90
2023-02-26T11:58:37.998Z,1.08
2023-02-26T12:03:46.327Z,0.95
2023-02-26T12:08:48.859Z,1.00
2023-02-26T12:13:50.646Z,0.88
2023-02-26T12:18:56.711Z,0.82
2023-02-26T12:24:29.374Z,1.83
2023-02-26T12:29:31.124Z,1.20
2023-02-26T12:35:12.547Z,1.10
2023-02-26T12:40:31.124Z,1.10
2023-02-26T12:45:54.770Z,1.27
2023-02-26T12:51:20.874Z,1.20
2023-02-26T12:56:46.951Z,0.90
2023-02-26T13:02:27.628Z,0.98
2023-02-26T13:07:59.639Z,1.23
2023-02-26T13:13:32.044Z,1.20
2023-02-26T13:18:52.213Z,1.30
2023-02-26T13:23:56.712Z,1.20
2023-02-26T13:29:05.510Z,1.52
2023-02-26T13:34:15.789Z,1.15
2023-02-26T13:39:36.387Z,1.08
2023-02-26T13:45:08.717Z,1.23
2023-02-26T13:50:35.212Z,1.35
2023-02-26T13:55:48.772Z,1.27
2023-02-26T14:01:05.687Z,1.42
2023-02-26T14:06:09.775Z,1.45
2023-02-26T14:11:17.590Z,1.48
2023-02-26T14:21:52.084Z,1.10
2023-02-26T14:27:12.213Z,0.70
2023-02-26T14:32:26.347Z,1.45
2023-02-26T14:37:29.076Z,1.75
2023-02-26T14:42:30.957Z,1.48
2023-02-26T14:47:32.986Z,2.10
2023-02-26T14:52:50.765Z,2.13
2023-02-26T14:58:01.734Z,1.67
2023-02-26T15:03:15.631Z,1.80
2023-02-26T15:08:26.244Z,1.80
2023-02-26T15:14:09.851Z,2.15
2023-02-26T15:20:02.614Z,2.38
2023-02-26T15:25:15.050Z,1.60
2023-02-26T15:30:18.021Z,1.40
2023-02-26T15:35:23.278Z,1.15
2023-02-26T15:40:27.233Z,1.92
2023-02-26T15:45:37.494Z,1.80
2023-02-26T15:50:43.234Z,1.40
2023-02-26T15:55:53.332Z,1.45
2023-02-26T16:00:56.416Z,2.90
2023-02-26T16:05:59.529Z,2.70
2023-02-26T16:11:02.228Z,2.58
2023-02-26T16:16:30.318Z,1.10
2023-02-26T16:26:41.979Z,3.08
2023-02-26T16:31:52.094Z,4.38
2023-02-26T16:36:54.640Z,4.25
2023-02-26T16:42:17.145Z,3.95
2023-02-26T16:47:20.583Z,4.30
2023-02-26T16:52:28.811Z,2.90
2023-02-26T16:57:42.334Z,3.47
2023-02-26T17:02:48.057Z,2.53
2023-02-26T17:07:58.416Z,2.88
2023-02-26T17:13:31.458Z,2.67
2023-02-26T17:18:34.085Z,3.20
2023-02-26T17:23:38.958Z,2.38
2023-02-26T17:28:43.337Z,3.83
2023-02-26T17:33:45.816Z,4.25
2023-02-26T17:38:48.879Z,4.13
2023-02-26T17:43:51.148Z,3.25
2023-02-26T17:48:53.224Z,4.68
2023-02-26T17:53:55.083Z,3.05
2023-02-26T17:58:58.897Z,2.42
2023-02-26T18:04:01.562Z,2.55
2023-02-26T18:09:05.996Z,3.95
2023-02-26T18:14:08.869Z,3.08
2023-02-26T18:19:14.424Z,2.63
2023-02-26T18:24:16.330Z,2.42
2023-02-26T18:29:18.234Z,2.80
2023-02-26T18:34:20.093Z,2.70
2023-02-26T18:39:22.051Z,2.80
2023-02-26T18:44:24.410Z,4.03
2023-02-26T18:49:27.635Z,3.35
2023-02-26T18:54:29.559Z,3.97
2023-02-26T18:59:33.785Z,3.25
2023-02-26T19:04:35.833Z,3.33
2023-02-26T19:09:37.896Z,3.78
2023-02-26T19:14:39.877Z,3.65
2023-02-26T19:19:42.570Z,3.60
2023-02-26T19:24:44.677Z,3.38
2023-02-26T19:29:46.702Z,5.47
2023-02-26T19:34:48.447Z,2.97
2023-02-26T19:39:50.302Z,2.13
2023-02-26T19:44:52.323Z,1.80
2023-02-26T19:49:54.165Z,2.28
2023-02-26T19:54:55.958Z,2.60
2023-02-26T19:59:59.562Z,3.35
2023-02-26T20:05:01.443Z,3.08
2023-02-26T20:10:04.144Z,2.75
2023-02-26T20:15:08.455Z,3.63
2023-02-26T20:20:11.355Z,2.55
2023-02-26T20:25:14.957Z,2.67
2023-02-26T20:30:20.412Z,2.65
2023-02-26T20:35:22.265Z,2.33
2023-02-26T20:40:24.148Z,1.98
2023-02-26T20:45:27.426Z,2.08
2023-02-26T20:50:29.475Z,1.90
2023-02-26T20:55:31.859Z,1.38
2023-02-26T21:00:33.740Z,1.75
2023-02-26T21:05:36.147Z,2.05
2023-02-26T21:10:38.674Z,1.95
2023-02-26T21:15:40.594Z,1.70
2023-02-26T21:20:42.384Z,2.08
2023-02-26T21:25:44.534Z,2.45
2023-02-26T21:30:46.429Z,1.92
2023-02-26T21:35:52.664Z,2.80
2023-02-26T21:40:54.798Z,3.00
2023-02-26T21:45:56.682Z,3.45
2023-02-26T21:51:00.035Z,1.83
2023-02-26T21:56:02.204Z,2.30
2023-02-26T22:01:04.867Z,3.35
2023-02-26T22:06:06.939Z,2.67
2023-02-26T22:11:08.976Z,1.10
2023-02-26T22:16:10.793Z,1.50
2023-02-26T22:21:12.700Z,1.70
2023-02-26T22:26:14.524Z,2.05
2023-02-26T22:31:16.652Z,1.48
2023-02-26T22:36:18.510Z,1.35
2023-02-26T22:41:20.450Z,1.63
2023-02-26T22:46:24.596Z,1.50
2023-02-26T22:51:28.453Z,1.70
2023-02-26T22:56:31.048Z,1.67
2023-02-26T23:01:32.857Z,1.58
2023-02-26T23:06:36.650Z,1.45
2023-02-26T23:11:38.501Z,1.38
2023-02-26T23:16:40.931Z,1.70
2023-02-26T23:21:42.820Z,1.40
2023-02-26T23:26:44.914Z,1.65
2023-02-26T23:31:46.848Z,1.65
2023-02-26T23:36:49.139Z,1.00
2023-02-26T23:41:50.951Z,1.10
2023-02-26T23:46:52.980Z,1.58
2023-02-26T23:51:54.811Z,1.80
2023-02-26T23:56:56.722Z,1.90
